sensor_id;sensor_type;location;lat;lon;timestamp;pressure;altitude;pressure_sealevel;temperature
70417;BMP280;57839;51.332;12.410;2024-02-04T00:01:58;100692.84;;;10.92
70417;BMP280;57839;51.332;12.410;2024-02-04T00:04:23;100695.19;;;10.94
70417;BMP280;57839;51.332;12.410;2024-02-04T00:06:49;100687.91;;;10.94
70417;BMP280;57839;51.332;12.410;2024-02-04T00:09:15;100680.63;;;10.95
70417;BMP280;57839;51.332;12.410;2024-02-04T00:11:40;100704.00;;;10.94
70417;BMP280;57839;51.332;12.410;2024-02-04T00:14:06;100717.09;;;10.96
70417;BMP280;57839;51.332;12.410;2024-02-04T00:16:31;100710.16;;;10.95
70417;BMP280;57839;51.332;12.410;2024-02-04T00:18:57;100699.41;;;10.95
70417;BMP280;57839;51.332;12.410;2024-02-04T00:21:22;100682.19;;;10.96
70417;BMP280;57839;51.332;12.410;2024-02-04T00:23:48;100674.13;;;10.96
70417;BMP280;57839;51.332;12.410;2024-02-04T00:26:14;100678.66;;;10.92
70417;BMP280;57839;51.332;12.410;2024-02-04T00:28:39;100671.38;;;10.92
70417;BMP280;57839;51.332;12.410;2024-02-04T00:31:08;100682.09;;;10.92
70417;BMP280;57839;51.332;12.410;2024-02-04T00:33:34;100684.72;;;10.89
70417;BMP280;57839;51.332;12.410;2024-02-04T00:35:59;100687.41;;;10.89
70417;BMP280;57839;51.332;12.410;2024-02-04T00:38:25;100676.34;;;10.90
70417;BMP280;57839;51.332;12.410;2024-02-04T00:40:50;100670.09;;;10.86
70417;BMP280;57839;51.332;12.410;2024-02-04T00:43:18;100671.22;;;10.85
70417;BMP280;57839;51.332;12.410;2024-02-04T00:45:43;100662.78;;;10.83
70417;BMP280;57839;51.332;12.410;2024-02-04T00:48:09;100653.88;;;10.79
70417;BMP280;57839;51.332;12.410;2024-02-04T00:50:34;100649.63;;;10.78
70417;BMP280;57839;51.332;12.410;2024-02-04T00:53:00;100656.84;;;10.74
70417;BMP280;57839;51.332;12.410;2024-02-04T00:55:26;100653.84;;;10.76
70417;BMP280;57839;51.332;12.410;2024-02-04T00:57:51;100649.16;;;10.73
70417;BMP280;57839;51.332;12.410;2024-02-04T01:00:18;100655.94;;;10.67
70417;BMP280;57839;51.332;12.410;2024-02-04T01:02:43;100664.06;;;10.70
70417;BMP280;57839;51.332;12.410;2024-02-04T01:05:09;100659.91;;;10.73
70417;BMP280;57839;51.332;12.410;2024-02-04T01:07:35;100662.13;;;10.71
70417;BMP280;57839;51.332;12.410;2024-02-04T01:10:00;100666.75;;;10.70
70417;BMP280;57839;51.332;12.410;2024-02-04T01:12:26;100664.81;;;10.71
70417;BMP280;57839;51.332;12.410;2024-02-04T01:14:51;100652.97;;;10.72
70417;BMP280;57839;51.332;12.410;2024-02-04T01:17:17;100655.31;;;10.73
70417;BMP280;57839;51.332;12.410;2024-02-04T01:19:42;100651.47;;;10.74
70417;BMP280;57839;51.332;12.410;2024-02-04T01:22:08;100650.28;;;10.72
70417;BMP280;57839;51.332;12.410;2024-02-04T01:24:34;100649.06;;;10.69
70417;BMP280;57839;51.332;12.410;2024-02-04T01:26:59;100645.69;;;10.72
70417;BMP280;57839;51.332;12.410;2024-02-04T01:29:25;100647.59;;;10.72
70417;BMP280;57839;51.332;12.410;2024-02-04T01:31:50;100644.50;;;10.70
70417;BMP280;57839;51.332;12.410;2024-02-04T01:34:16;100644.91;;;10.72
70417;BMP280;57839;51.332;12.410;2024-02-04T01:36:42;100644.22;;;10.75
70417;BMP280;57839;51.332;12.410;2024-02-04T01:39:07;100638.06;;;10.74
70417;BMP280;57839;51.332;12.410;2024-02-04T01:41:33;100652.63;;;10.73
70417;BMP280;57839;51.332;12.410;2024-02-04T01:43:58;100642.66;;;10.74
70417;BMP280;57839;51.332;12.410;2024-02-04T01:46:24;100640.66;;;10.71
70417;BMP280;57839;51.332;12.410;2024-02-04T01:48:50;100635.75;;;10.73
70417;BMP280;57839;51.332;12.410;2024-02-04T01:51:16;100644.13;;;10.71
70417;BMP280;57839;51.332;12.410;2024-02-04T01:53:44;100638.34;;;10.69
70417;BMP280;57839;51.332;12.410;2024-02-04T01:56:10;100629.50;;;10.69
70417;BMP280;57839;51.332;12.410;2024-02-04T01:58:36;100640.97;;;10.66
70417;BMP280;57839;51.332;12.410;2024-02-04T02:01:02;100627.84;;;10.61
70417;BMP280;57839;51.332;12.410;2024-02-04T02:03:28;100645.06;;;10.60
70417;BMP280;57839;51.332;12.410;2024-02-04T02:05:56;100653.81;;;10.57
70417;BMP280;57839;51.332;12.410;2024-02-04T02:08:23;100650.28;;;10.53
70417;BMP280;57839;51.332;12.410;2024-02-04T02:10:50;100658.34;;;10.53
70417;BMP280;57839;51.332;12.410;2024-02-04T02:13:25;100639.91;;;10.51
70417;BMP280;57839;51.332;12.410;2024-02-04T02:16:00;100649.88;;;10.51
70417;BMP280;57839;51.332;12.410;2024-02-04T02:18:54;100623.72;;;10.48
70417;BMP280;57839;51.332;12.410;2024-02-04T02:21:56;100642.09;;;10.46
70417;BMP280;57839;51.332;12.410;2024-02-04T02:26:49;100616.78;;;10.43
70417;BMP280;57839;51.332;12.410;2024-02-04T02:29:15;100618.66;;;10.43
70417;BMP280;57839;51.332;12.410;2024-02-04T02:31:42;100621.41;;;10.46
70417;BMP280;57839;51.332;12.410;2024-02-04T02:34:08;100630.25;;;10.47
70417;BMP280;57839;51.332;12.410;2024-02-04T02:36:40;100621.50;;;10.50
70417;BMP280;57839;51.332;12.410;2024-02-04T02:39:15;100618.81;;;10.50
70417;BMP280;57839;51.332;12.410;2024-02-04T02:41:42;100614.91;;;10.47
70417;BMP280;57839;51.332;12.410;2024-02-04T02:44:09;100617.94;;;10.46
70417;BMP280;57839;51.332;12.410;2024-02-04T02:46:36;100626.00;;;10.46
70417;BMP280;57839;51.332;12.410;2024-02-04T02:49:02;100614.88;;;10.44
70417;BMP280;57839;51.332;12.410;2024-02-04T02:51:28;100626.34;;;10.44
70417;BMP280;57839;51.332;12.410;2024-02-04T02:53:54;100629.72;;;10.41
70417;BMP280;57839;51.332;12.410;2024-02-04T02:56:19;100631.22;;;10.38
70417;BMP280;57839;51.332;12.410;2024-02-04T02:58:45;100633.47;;;10.36
70417;BMP280;57839;51.332;12.410;2024-02-04T03:01:10;100631.88;;;10.32
70417;BMP280;57839;51.332;12.410;2024-02-04T03:03:36;100626.00;;;10.26
70417;BMP280;57839;51.332;12.410;2024-02-04T03:06:01;100642.44;;;10.25
70417;BMP280;57839;51.332;12.410;2024-02-04T03:08:27;100635.50;;;10.24
70417;BMP280;57839;51.332;12.410;2024-02-04T03:10:52;100625.47;;;10.21
70417;BMP280;57839;51.332;12.410;2024-02-04T03:13:18;100618.22;;;10.21
70417;BMP280;57839;51.332;12.410;2024-02-04T03:15:44;100618.22;;;10.21
70417;BMP280;57839;51.332;12.410;2024-02-04T03:18:10;100612.44;;;10.19
70417;BMP280;57839;51.332;12.410;2024-02-04T03:20:36;100619.00;;;10.22
70417;BMP280;57839;51.332;12.410;2024-02-04T03:23:02;100619.00;;;10.22
70417;BMP280;57839;51.332;12.410;2024-02-04T03:25:27;100610.94;;;10.22
70417;BMP280;57839;51.332;12.410;2024-02-04T03:27:55;100606.78;;;10.24
70417;BMP280;57839;51.332;12.410;2024-02-04T03:30:21;100611.03;;;10.25
70417;BMP280;57839;51.332;12.410;2024-02-04T03:32:47;100608.69;;;10.24
70417;BMP280;57839;51.332;12.410;2024-02-04T03:35:12;100592.28;;;10.25
70417;BMP280;57839;51.332;12.410;2024-02-04T03:37:38;100590.38;;;10.26
70417;BMP280;57839;51.332;12.410;2024-02-04T03:40:04;100591.13;;;10.26
70417;BMP280;57839;51.332;12.410;2024-02-04T03:42:30;100607.22;;;10.26
70417;BMP280;57839;51.332;12.410;2024-02-04T03:44:55;100596.13;;;10.28
70417;BMP280;57839;51.332;12.410;2024-02-04T03:47:21;100591.13;;;10.26
70417;BMP280;57839;51.332;12.410;2024-02-04T03:49:47;100581.59;;;10.29
70417;BMP280;57839;51.332;12.410;2024-02-04T03:52:12;100591.97;;;10.30
70417;BMP280;57839;51.332;12.410;2024-02-04T03:54:38;100597.00;;;10.32
70417;BMP280;57839;51.332;12.410;2024-02-04T03:57:04;100596.28;;;10.35
70417;BMP280;57839;51.332;12.410;2024-02-04T03:59:29;100590.16;;;10.34
70417;BMP280;57839;51.332;12.410;2024-02-04T04:01:55;100597.47;;;10.38
70417;BMP280;57839;51.332;12.410;2024-02-04T04:04:23;100593.31;;;10.40
70417;BMP280;57839;51.332;12.410;2024-02-04T04:06:48;100591.84;;;10.43
70417;BMP280;57839;51.332;12.410;2024-02-04T04:09:14;100594.88;;;10.41
70417;BMP280;57839;51.332;12.410;2024-02-04T04:11:40;100591.50;;;10.44
70417;BMP280;57839;51.332;12.410;2024-02-04T04:14:06;100579.28;;;10.47
70417;BMP280;57839;51.332;12.410;2024-02-04T04:16:31;100586.97;;;10.48
70417;BMP280;57839;51.332;12.410;2024-02-04T04:18:57;100588.06;;;10.47
70417;BMP280;57839;51.332;12.410;2024-02-04T04:21:24;100591.53;;;10.48
70417;BMP280;57839;51.332;12.410;2024-02-04T04:23:50;100594.69;;;10.50
70417;BMP280;57839;51.332;12.410;2024-02-04T04:26:15;100597.00;;;10.51
70417;BMP280;57839;51.332;12.410;2024-02-04T04:28:41;100604.69;;;10.53
70417;BMP280;57839;51.332;12.410;2024-02-04T04:31:06;100597.34;;;10.50
70417;BMP280;57839;51.332;12.410;2024-02-04T04:33:32;100591.63;;;10.51
70417;BMP280;57839;51.332;12.410;2024-02-04T04:35:57;100599.16;;;10.46
70417;BMP280;57839;51.332;12.410;2024-02-04T04:38:23;100593.03;;;10.45
70417;BMP280;57839;51.332;12.410;2024-02-04T04:40:49;100577.31;;;10.44
70417;BMP280;57839;51.332;12.410;2024-02-04T04:43:14;100573.41;;;10.41
70417;BMP280;57839;51.332;12.410;2024-02-04T04:45:40;100576.03;;;10.38
70417;BMP280;57839;51.332;12.410;2024-02-04T04:48:06;100558.47;;;10.40
70417;BMP280;57839;51.332;12.410;2024-02-04T04:50:35;100564.53;;;10.37
70417;BMP280;57839;51.332;12.410;2024-02-04T04:53:01;100553.78;;;10.37
70417;BMP280;57839;51.332;12.410;2024-02-04T04:55:27;100566.50;;;10.40
70417;BMP280;57839;51.332;12.410;2024-02-04T04:57:52;100564.94;;;10.39
70417;BMP280;57839;51.332;12.410;2024-02-04T05:00:18;100555.69;;;10.36
70417;BMP280;57839;51.332;12.410;2024-02-04T05:02:45;100543.84;;;10.38
70417;BMP280;57839;51.332;12.410;2024-02-04T05:05:11;100552.63;;;10.34
70417;BMP280;57839;51.332;12.410;2024-02-04T05:07:37;100560.22;;;10.32
70417;BMP280;57839;51.332;12.410;2024-02-04T05:10:03;100550.63;;;10.31
70417;BMP280;57839;51.332;12.410;2024-02-04T05:12:29;100545.28;;;10.31
70417;BMP280;57839;51.332;12.410;2024-02-04T05:14:55;100528.41;;;10.31
70417;BMP280;57839;51.332;12.410;2024-02-04T05:17:21;100525.28;;;10.29
70417;BMP280;57839;51.332;12.410;2024-02-04T05:19:47;100541.03;;;10.30
70417;BMP280;57839;51.332;12.410;2024-02-04T05:22:12;100526.41;;;10.28
70417;BMP280;57839;51.332;12.410;2024-02-04T05:24:38;100524.16;;;10.30
70417;BMP280;57839;51.332;12.410;2024-02-04T05:27:04;100544.13;;;10.32
70417;BMP280;57839;51.332;12.410;2024-02-04T05:29:31;100530.38;;;10.34
70417;BMP280;57839;51.332;12.410;2024-02-04T05:31:56;100536.91;;;10.36
70417;BMP280;57839;51.332;12.410;2024-02-04T05:34:22;100524.28;;;10.37
70417;BMP280;57839;51.332;12.410;2024-02-04T05:36:48;100530.81;;;10.36
70417;BMP280;57839;51.332;12.410;2024-02-04T05:39:15;100530.81;;;10.36
70417;BMP280;57839;51.332;12.410;2024-02-04T05:41:41;100521.97;;;10.35
70417;BMP280;57839;51.332;12.410;2024-02-04T05:44:07;100523.44;;;10.33
70417;BMP280;57839;51.332;12.410;2024-02-04T05:46:36;100518.44;;;10.31
70417;BMP280;57839;51.332;12.410;2024-02-04T05:49:02;100516.88;;;10.30
70417;BMP280;57839;51.332;12.410;2024-02-04T05:51:28;100513.09;;;10.31
70417;BMP280;57839;51.332;12.410;2024-02-04T05:53:54;100511.53;;;10.30
70417;BMP280;57839;51.332;12.410;2024-02-04T05:56:21;100500.09;;;10.33
70417;BMP280;57839;51.332;12.410;2024-02-04T05:58:47;100494.38;;;10.35
70417;BMP280;57839;51.332;12.410;2024-02-04T06:01:12;100488.25;;;10.34
70417;BMP280;57839;51.332;12.410;2024-02-04T06:03:38;100492.47;;;10.35
70417;BMP280;57839;51.332;12.410;2024-02-04T06:06:04;100484.47;;;10.39
70417;BMP280;57839;51.332;12.410;2024-02-04T06:08:30;100484.91;;;10.41
70417;BMP280;57839;51.332;12.410;2024-02-04T06:10:55;100476.84;;;10.41
70417;BMP280;57839;51.332;12.410;2024-02-04T06:13:21;100482.59;;;10.40
70417;BMP280;57839;51.332;12.410;2024-02-04T06:15:46;100484.91;;;10.41
70417;BMP280;57839;51.332;12.410;2024-02-04T06:18:12;100482.66;;;10.43
70417;BMP280;57839;51.332;12.410;2024-02-04T06:20:38;100476.91;;;10.45
70417;BMP280;57839;51.332;12.410;2024-02-04T06:23:03;100489.97;;;10.46
70417;BMP280;57839;51.332;12.410;2024-02-04T06:25:29;100480.09;;;10.50
70417;BMP280;57839;51.332;12.410;2024-02-04T06:27:54;100481.66;;;10.51
70417;BMP280;57839;51.332;12.410;2024-02-04T06:30:20;100469.34;;;10.50
70417;BMP280;57839;51.332;12.410;2024-02-04T06:32:48;100473.88;;;10.46
70417;BMP280;57839;51.332;12.410;2024-02-04T06:35:14;100474.72;;;10.50
70417;BMP280;57839;51.332;12.410;2024-02-04T06:37:41;100496.63;;;10.52
70417;BMP280;57839;51.332;12.410;2024-02-04T06:40:07;100485.16;;;10.55
70417;BMP280;57839;51.332;12.410;2024-02-04T06:42:33;100500.13;;;10.56
70417;BMP280;57839;51.332;12.410;2024-02-04T06:44:58;100486.78;;;10.60
70417;BMP280;57839;51.332;12.410;2024-02-04T06:47:24;100486.78;;;10.60
70417;BMP280;57839;51.332;12.410;2024-02-04T06:49:49;100489.50;;;10.63
70417;BMP280;57839;51.332;12.410;2024-02-04T06:52:15;100501.44;;;10.66
70417;BMP280;57839;51.332;12.410;2024-02-04T06:54:41;100501.09;;;10.67
70417;BMP280;57839;51.332;12.410;2024-02-04T06:57:06;100480.03;;;10.69
70417;BMP280;57839;51.332;12.410;2024-02-04T06:59:32;100470.50;;;10.72
70417;BMP280;57839;51.332;12.410;2024-02-04T07:01:57;100479.31;;;10.72
70417;BMP280;57839;51.332;12.410;2024-02-04T07:04:23;100473.59;;;10.74
70417;BMP280;57839;51.332;12.410;2024-02-04T07:06:50;100481.63;;;10.74
70417;BMP280;57839;51.332;12.410;2024-02-04T07:09:16;100481.63;;;10.74
70417;BMP280;57839;51.332;12.410;2024-02-04T07:11:41;100480.44;;;10.71
70417;BMP280;57839;51.332;12.410;2024-02-04T07:14:07;100485.81;;;10.71
70417;BMP280;57839;51.332;12.410;2024-02-04T07:16:33;100479.72;;;10.74
70417;BMP280;57839;51.332;12.410;2024-02-04T07:18:59;100487.78;;;10.74
70417;BMP280;57839;51.332;12.410;2024-02-04T07:21:25;100490.47;;;10.74
70417;BMP280;57839;51.332;12.410;2024-02-04T07:23:50;100498.19;;;10.76
70417;BMP280;57839;51.332;12.410;2024-02-04T07:26:16;100494.72;;;10.75
70417;BMP280;57839;51.332;12.410;2024-02-04T07:28:42;100489.41;;;10.79
70417;BMP280;57839;51.332;12.410;2024-02-04T07:31:07;100475.97;;;10.79
70417;BMP280;57839;51.332;12.410;2024-02-04T07:33:33;100464.94;;;10.84
70417;BMP280;57839;51.332;12.410;2024-02-04T07:35:58;100471.03;;;10.81
70417;BMP280;57839;51.332;12.410;2024-02-04T07:38:23;100479.16;;;10.84
70417;BMP280;57839;51.332;12.410;2024-02-04T07:40:49;100463.75;;;10.81
70417;BMP280;57839;51.332;12.410;2024-02-04T07:43:15;100469.91;;;10.85
70417;BMP280;57839;51.332;12.410;2024-02-04T07:45:40;100476.84;;;10.86
70417;BMP280;57839;51.332;12.410;2024-02-04T07:48:07;100469.59;;;10.87
70417;BMP280;57839;51.332;12.410;2024-02-04T07:50:35;100450.50;;;10.92
70417;BMP280;57839;51.332;12.410;2024-02-04T07:53:00;100446.66;;;10.93
70417;BMP280;57839;51.332;12.410;2024-02-04T07:55:26;100440.19;;;10.94
70417;BMP280;57839;51.332;12.410;2024-02-04T07:57:52;100450.91;;;10.94
70417;BMP280;57839;51.332;12.410;2024-02-04T08:00:18;100448.28;;;10.97
70417;BMP280;57839;51.332;12.410;2024-02-04T08:02:46;100459.44;;;10.99
70417;BMP280;57839;51.332;12.410;2024-02-04T08:05:12;100464.41;;;11.01
70417;BMP280;57839;51.332;12.410;2024-02-04T08:07:38;100462.91;;;11.00
70417;BMP280;57839;51.332;12.410;2024-02-04T08:10:04;100478.28;;;11.03
70417;BMP280;57839;51.332;12.410;2024-02-04T08:12:30;100476.34;;;11.03
70417;BMP280;57839;51.332;12.410;2024-02-04T08:14:55;100493.25;;;11.04
70417;BMP280;57839;51.332;12.410;2024-02-04T08:17:21;100471.75;;;11.04
70417;BMP280;57839;51.332;12.410;2024-02-04T08:19:47;100465.19;;;11.01
70417;BMP280;57839;51.332;12.410;2024-02-04T08:22:12;100464.03;;;10.99
70417;BMP280;57839;51.332;12.410;2024-02-04T08:24:38;100449.94;;;11.05
70417;BMP280;57839;51.332;12.410;2024-02-04T08:27:04;100430.78;;;11.07
70417;BMP280;57839;51.332;12.410;2024-02-04T08:29:29;100447.00;;;11.14
70417;BMP280;57839;51.332;12.410;2024-02-04T08:31:55;100451.19;;;11.11
70417;BMP280;57839;51.332;12.410;2024-02-04T08:34:20;100446.22;;;11.13
70417;BMP280;57839;51.332;12.410;2024-02-04T08:36:49;100454.69;;;11.16
70417;BMP280;57839;51.332;12.410;2024-02-04T08:39:15;100448.94;;;11.17
70417;BMP280;57839;51.332;12.410;2024-02-04T08:41:41;100435.53;;;11.17
70417;BMP280;57839;51.332;12.410;2024-02-04T08:44:07;100431.75;;;11.22
70417;BMP280;57839;51.332;12.410;2024-02-04T08:46:32;100446.34;;;11.24
70417;BMP280;57839;51.332;12.410;2024-02-04T08:48:58;100455.25;;;11.28
70417;BMP280;57839;51.332;12.410;2024-02-04T08:51:23;100443.31;;;11.26
70417;BMP280;57839;51.332;12.410;2024-02-04T08:53:49;100440.63;;;11.26
70417;BMP280;57839;51.332;12.410;2024-02-04T08:56:15;100446.84;;;11.30
70417;BMP280;57839;51.332;12.410;2024-02-04T08:58:40;100459.16;;;11.34
70417;BMP280;57839;51.332;12.410;2024-02-04T09:01:06;100447.63;;;11.34
70417;BMP280;57839;51.332;12.410;2024-02-04T09:03:32;100448.41;;;11.34
70417;BMP280;57839;51.332;12.410;2024-02-04T09:05:58;100456.47;;;11.34
70417;BMP280;57839;51.332;12.410;2024-02-04T09:08:24;100463.41;;;11.35
70417;BMP280;57839;51.332;12.410;2024-02-04T09:10:49;100454.91;;;11.33
70417;BMP280;57839;51.332;12.410;2024-02-04T09:13:15;100455.34;;;11.35
70417;BMP280;57839;51.332;12.410;2024-02-04T09:15:41;100451.88;;;11.35
70417;BMP280;57839;51.332;12.410;2024-02-04T09:18:07;100456.09;;;11.36
70417;BMP280;57839;51.332;12.410;2024-02-04T09:20:32;100464.91;;;11.33
70417;BMP280;57839;51.332;12.410;2024-02-04T09:22:58;100470.28;;;11.33
70417;BMP280;57839;51.332;12.410;2024-02-04T09:25:24;100470.69;;;11.35
70417;BMP280;57839;51.332;12.410;2024-02-04T09:27:50;100461.84;;;11.34
70417;BMP280;57839;51.332;12.410;2024-02-04T09:30:16;100458.34;;;11.30
70417;BMP280;57839;51.332;12.410;2024-02-04T09:32:41;100450.25;;;11.27
70417;BMP280;57839;51.332;12.410;2024-02-04T09:35:07;100450.59;;;11.25
70417;BMP280;57839;51.332;12.410;2024-02-04T09:37:35;100464.75;;;11.22
70417;BMP280;57839;51.332;12.410;2024-02-04T09:40:00;100460.50;;;11.21
70417;BMP280;57839;51.332;12.410;2024-02-04T09:42:26;100442.88;;;11.20
70417;BMP280;57839;51.332;12.410;2024-02-04T09:44:53;100448.66;;;11.22
70417;BMP280;57839;51.332;12.410;2024-02-04T09:47:20;100438.22;;;11.17
70417;BMP280;57839;51.332;12.410;2024-02-04T09:49:46;100442.00;;;11.16
70417;BMP280;57839;51.332;12.410;2024-02-04T09:52:13;100452.81;;;11.20
70417;BMP280;57839;51.332;12.410;2024-02-04T09:54:45;100439.47;;;11.23
70417;BMP280;57839;51.332;12.410;2024-02-04T09:57:12;100443.31;;;11.26
70417;BMP280;57839;51.332;12.410;2024-02-04T09:59:38;100442.19;;;11.27
70417;BMP280;57839;51.332;12.410;2024-02-04T10:02:04;100441.03;;;11.28
70417;BMP280;57839;51.332;12.410;2024-02-04T10:04:30;100441.03;;;11.28
70417;BMP280;57839;51.332;12.410;2024-02-04T10:06:56;100443.38;;;11.29
70417;BMP280;57839;51.332;12.410;2024-02-04T10:09:22;100445.66;;;11.31
70417;BMP280;57839;51.332;12.410;2024-02-04T10:11:47;100428.81;;;11.30
70417;BMP280;57839;51.332;12.410;2024-02-04T10:14:13;100424.50;;;11.26
70417;BMP280;57839;51.332;12.410;2024-02-04T10:16:40;100405.34;;;11.27
70417;BMP280;57839;51.332;12.410;2024-02-04T10:19:05;100394.97;;;11.26
70417;BMP280;57839;51.332;12.410;2024-02-04T10:21:31;100400.69;;;11.24
70417;BMP280;57839;51.332;12.410;2024-02-04T10:23:56;100406.06;;;11.24
70417;BMP280;57839;51.332;12.410;2024-02-04T10:26:22;100400.31;;;11.22
70417;BMP280;57839;51.332;12.410;2024-02-04T10:28:48;100393.84;;;11.27
70417;BMP280;57839;51.332;12.410;2024-02-04T10:31:14;100400.00;;;11.31
70417;BMP280;57839;51.332;12.410;2024-02-04T10:33:40;100391.59;;;11.32
70417;BMP280;57839;51.332;12.410;2024-02-04T10:36:05;100373.22;;;11.34
70417;BMP280;57839;51.332;12.410;2024-02-04T10:38:34;100364.03;;;11.35
70417;BMP280;57839;51.332;12.410;2024-02-04T10:41:01;100364.03;;;11.39
70417;BMP280;57839;51.332;12.410;2024-02-04T10:43:33;100364.81;;;11.39
70417;BMP280;57839;51.332;12.410;2024-02-04T10:46:08;100367.47;;;11.36
70417;BMP280;57839;51.332;12.410;2024-02-04T10:48:36;100369.81;;;11.37
70417;BMP280;57839;51.332;12.410;2024-02-04T10:51:14;100349.88;;;11.38
70417;BMP280;57839;51.332;12.410;2024-02-04T10:53:44;100347.19;;;11.42
70417;BMP280;57839;51.332;12.410;2024-02-04T10:56:23;100355.25;;;11.42
70417;BMP280;57839;51.332;12.410;2024-02-04T10:58:51;100345.28;;;11.42
70417;BMP280;57839;51.332;12.410;2024-02-04T11:01:18;100340.63;;;11.39
70417;BMP280;57839;51.332;12.410;2024-02-04T11:03:45;100344.50;;;11.38
70417;BMP280;57839;51.332;12.410;2024-02-04T11:06:11;100339.84;;;11.39
70417;BMP280;57839;51.332;12.410;2024-02-04T11:08:38;100340.28;;;11.41
70417;BMP280;57839;51.332;12.410;2024-02-04T11:11:04;100335.31;;;11.43
70417;BMP280;57839;51.332;12.410;2024-02-04T11:13:30;100331.84;;;11.42
70417;BMP280;57839;51.332;12.410;2024-02-04T11:19:51;100334.19;;;11.44
70417;BMP280;57839;51.332;12.410;2024-02-04T11:22:51;100344.56;;;11.45
70417;BMP280;57839;51.332;12.410;2024-02-04T11:25:31;100332.22;;;11.41
70417;BMP280;57839;51.332;12.410;2024-02-04T11:28:01;100333.00;;;11.41
70417;BMP280;57839;51.332;12.410;2024-02-04T11:30:32;100331.06;;;11.42
70417;BMP280;57839;51.332;12.410;2024-02-04T11:33:00;100329.94;;;11.43
70417;BMP280;57839;51.332;12.410;2024-02-04T11:35:26;100336.44;;;11.42
70417;BMP280;57839;51.332;12.410;2024-02-04T11:37:53;100332.63;;;11.43
70417;BMP280;57839;51.332;12.410;2024-02-04T11:40:20;100323.78;;;11.42
70417;BMP280;57839;51.332;12.410;2024-02-04T11:42:48;100308.47;;;11.46
70417;BMP280;57839;51.332;12.410;2024-02-04T11:45:14;100313.50;;;11.44
70417;BMP280;57839;51.332;12.410;2024-02-04T11:47:40;100317.69;;;11.45
70417;BMP280;57839;51.332;12.410;2024-02-04T11:50:06;100331.88;;;11.46
70417;BMP280;57839;51.332;12.410;2024-02-04T11:52:32;100317.28;;;11.43
70417;BMP280;57839;51.332;12.410;2024-02-04T11:54:57;100316.59;;;11.50
70417;BMP280;57839;51.332;12.410;2024-02-04T11:57:23;100320.47;;;11.52
70417;BMP280;57839;51.332;12.410;2024-02-04T11:59:50;100316.63;;;11.53
70417;BMP280;57839;51.332;12.410;2024-02-04T12:02:17;100298.63;;;11.57
70417;BMP280;57839;51.332;12.410;2024-02-04T12:04:46;100309.41;;;11.61
70417;BMP280;57839;51.332;12.410;2024-02-04T12:07:13;100317.88;;;11.63
70417;BMP280;57839;51.332;12.410;2024-02-04T12:09:38;100323.25;;;11.63
70417;BMP280;57839;51.332;12.410;2024-02-04T12:12:05;100321.34;;;11.63
70417;BMP280;57839;51.332;12.410;2024-02-04T12:14:31;100326.22;;;11.54
70417;BMP280;57839;51.332;12.410;2024-02-04T12:16:56;100314.63;;;11.47
70417;BMP280;57839;51.332;12.410;2024-02-04T12:19:25;100306.19;;;11.48
70417;BMP280;57839;51.332;12.410;2024-02-04T12:21:50;100324.22;;;11.44
70417;BMP280;57839;51.332;12.410;2024-02-04T12:24:16;100304.66;;;11.44
70417;BMP280;57839;51.332;12.410;2024-02-04T12:26:42;100313.47;;;11.48
70417;BMP280;57839;51.332;12.410;2024-02-04T12:29:10;100318.09;;;11.47
70417;BMP280;57839;51.332;12.410;2024-02-04T12:31:36;100310.84;;;11.51
70417;BMP280;57839;51.332;12.410;2024-02-04T12:34:01;100312.75;;;11.51
70417;BMP280;57839;51.332;12.410;2024-02-04T12:36:28;100306.59;;;11.47
70417;BMP280;57839;51.332;12.410;2024-02-04T12:38:54;100293.53;;;11.45
70417;BMP280;57839;51.332;12.410;2024-02-04T12:41:21;100298.53;;;11.47
70417;BMP280;57839;51.332;12.410;2024-02-04T12:43:57;100293.22;;;11.50
70417;BMP280;57839;51.332;12.410;2024-02-04T12:46:24;100290.13;;;11.52
70417;BMP280;57839;51.332;12.410;2024-02-04T12:48:54;100287.88;;;11.57
70417;BMP280;57839;51.332;12.410;2024-02-04T12:51:26;100275.25;;;11.61
70417;BMP280;57839;51.332;12.410;2024-02-04T12:54:05;100278.75;;;11.65
70417;BMP280;57839;51.332;12.410;2024-02-04T12:59:28;100285.69;;;11.70
70417;BMP280;57839;51.332;12.410;2024-02-04T13:02:23;100296.50;;;11.73
70417;BMP280;57839;51.332;12.410;2024-02-04T13:04:48;100282.63;;;11.71
70417;BMP280;57839;51.332;12.410;2024-02-04T13:07:14;100286.03;;;11.68
70417;BMP280;57839;51.332;12.410;2024-02-04T13:09:45;100286.03;;;11.68
70417;BMP280;57839;51.332;12.410;2024-02-04T13:12:11;100284.53;;;11.67
70417;BMP280;57839;51.332;12.410;2024-02-04T13:14:37;100280.28;;;11.66
70417;BMP280;57839;51.332;12.410;2024-02-04T13:17:04;100288.69;;;11.61
70417;BMP280;57839;51.332;12.410;2024-02-04T13:19:36;100295.94;;;11.57
70417;BMP280;57839;51.332;12.410;2024-02-04T13:22:03;100285.63;;;11.59
70417;BMP280;57839;51.332;12.410;2024-02-04T13:24:29;100289.44;;;11.58
70417;BMP280;57839;51.332;12.410;2024-02-04T13:26:55;100294.75;;;11.55
70417;BMP280;57839;51.332;12.410;2024-02-04T13:29:21;100295.53;;;11.55
70417;BMP280;57839;51.332;12.410;2024-02-04T13:31:46;100302.81;;;11.55
70417;BMP280;57839;51.332;12.410;2024-02-04T13:34:12;100310.06;;;11.51
70417;BMP280;57839;51.332;12.410;2024-02-04T13:36:37;100313.91;;;11.50
70417;BMP280;57839;51.332;12.410;2024-02-04T13:39:03;100304.34;;;11.52
70417;BMP280;57839;51.332;12.410;2024-02-04T13:41:31;100309.72;;;11.52
70417;BMP280;57839;51.332;12.410;2024-02-04T13:43:56;100308.56;;;11.53
70417;BMP280;57839;51.332;12.410;2024-02-04T13:46:22;100318.91;;;11.51
70417;BMP280;57839;51.332;12.410;2024-02-04T13:48:47;100312.34;;;11.49
70417;BMP280;57839;51.332;12.410;2024-02-04T13:51:13;100323.50;;;11.51